sensor_id;sensor_type;location;lat;lon;timestamp;temperature;humidity
48589;DHT22;34369;51.174;6.738;2022-08-19T00:01:56;18.40;77.00
48589;DHT22;34369;51.174;6.738;2022-08-19T00:04:31;18.30;76.70
48589;DHT22;34369;51.174;6.738;2022-08-19T00:07:07;18.30;76.70
48589;DHT22;34369;51.174;6.738;2022-08-19T00:09:40;18.30;76.80
48589;DHT22;34369;51.174;6.738;2022-08-19T00:12:13;18.30;77.30
48589;DHT22;34369;51.174;6.738;2022-08-19T00:14:45;18.20;77.00
48589;DHT22;34369;51.174;6.738;2022-08-19T00:17:17;18.20;77.10
48589;DHT22;34369;51.174;6.738;2022-08-19T00:19:49;18.20;77.40
48589;DHT22;34369;51.174;6.738;2022-08-19T00:22:21;18.10;77.60
48589;DHT22;34369;51.174;6.738;2022-08-19T00:24:54;18.10;77.80
48589;DHT22;34369;51.174;6.738;2022-08-19T00:27:26;18.10;77.80
48589;DHT22;34369;51.174;6.738;2022-08-19T00:29:58;18.10;78.00
48589;DHT22;34369;51.174;6.738;2022-08-19T00:32:30;18.00;78.10
48589;DHT22;34369;51.174;6.738;2022-08-19T00:35:04;18.00;78.00
48589;DHT22;34369;51.174;6.738;2022-08-19T00:37:37;18.00;78.40
48589;DHT22;34369;51.174;6.738;2022-08-19T00:40:15;18.00;78.50
48589;DHT22;34369;51.174;6.738;2022-08-19T00:42:48;17.90;79.00
48589;DHT22;34369;51.174;6.738;2022-08-19T00:45:26;17.90;79.20
48589;DHT22;34369;51.174;6.738;2022-08-19T00:48:03;17.90;79.40
48589;DHT22;34369;51.174;6.738;2022-08-19T00:50:35;17.90;79.60
48589;DHT22;34369;51.174;6.738;2022-08-19T00:53:07;17.90;80.30
48589;DHT22;34369;51.174;6.738;2022-08-19T00:55:42;17.80;79.80
48589;DHT22;34369;51.174;6.738;2022-08-19T00:58:20;17.80;79.40
48589;DHT22;34369;51.174;6.738;2022-08-19T01:00:52;17.80;80.40
48589;DHT22;34369;51.174;6.738;2022-08-19T01:03:24;17.80;80.30
48589;DHT22;34369;51.174;6.738;2022-08-19T01:05:56;17.80;80.40
48589;DHT22;34369;51.174;6.738;2022-08-19T01:08:28;17.70;80.30
48589;DHT22;34369;51.174;6.738;2022-08-19T01:11:01;17.70;80.50
48589;DHT22;34369;51.174;6.738;2022-08-19T01:13:34;17.70;80.60
48589;DHT22;34369;51.174;6.738;2022-08-19T01:16:08;17.70;80.50
48589;DHT22;34369;51.174;6.738;2022-08-19T01:18:42;17.60;80.50
48589;DHT22;34369;51.174;6.738;2022-08-19T01:21:22;17.60;80.80
48589;DHT22;34369;51.174;6.738;2022-08-19T01:24:00;17.60;81.40
48589;DHT22;34369;51.174;6.738;2022-08-19T01:26:38;17.60;81.00
48589;DHT22;34369;51.174;6.738;2022-08-19T01:29:12;17.60;81.30
48589;DHT22;34369;51.174;6.738;2022-08-19T01:31:44;17.50;80.80
48589;DHT22;34369;51.174;6.738;2022-08-19T01:34:16;17.50;81.30
48589;DHT22;34369;51.174;6.738;2022-08-19T01:36:47;17.50;81.70
48589;DHT22;34369;51.174;6.738;2022-08-19T01:39:23;17.50;82.00
48589;DHT22;34369;51.174;6.738;2022-08-19T01:41:56;17.40;82.50
48589;DHT22;34369;51.174;6.738;2022-08-19T01:44:28;17.40;82.30
48589;DHT22;34369;51.174;6.738;2022-08-19T01:47:00;17.40;82.70
48589;DHT22;34369;51.174;6.738;2022-08-19T01:49:32;17.40;82.60
48589;DHT22;34369;51.174;6.738;2022-08-19T01:52:05;17.40;82.80
48589;DHT22;34369;51.174;6.738;2022-08-19T01:54:38;17.30;82.60
48589;DHT22;34369;51.174;6.738;2022-08-19T01:57:12;17.30;82.60
48589;DHT22;34369;51.174;6.738;2022-08-19T01:59:45;17.30;82.50
48589;DHT22;34369;51.174;6.738;2022-08-19T02:02:17;17.30;81.80
48589;DHT22;34369;51.174;6.738;2022-08-19T02:04:49;17.30;82.30
48589;DHT22;34369;51.174;6.738;2022-08-19T02:07:21;17.30;82.60
48589;DHT22;34369;51.174;6.738;2022-08-19T02:09:56;17.20;82.50
48589;DHT22;34369;51.174;6.738;2022-08-19T02:12:28;17.20;83.00
48589;DHT22;34369;51.174;6.738;2022-08-19T02:15:00;17.20;82.90
48589;DHT22;34369;51.174;6.738;2022-08-19T02:17:32;17.20;83.20
48589;DHT22;34369;51.174;6.738;2022-08-19T02:20:05;17.20;83.00
48589;DHT22;34369;51.174;6.738;2022-08-19T02:22:38;17.20;83.20
48589;DHT22;34369;51.174;6.738;2022-08-19T02:25:14;17.20;83.00
48589;DHT22;34369;51.174;6.738;2022-08-19T02:27:46;17.10;82.80
48589;DHT22;34369;51.174;6.738;2022-08-19T02:30:18;17.10;82.30
48589;DHT22;34369;51.174;6.738;2022-08-19T02:32:50;17.00;82.80
48589;DHT22;34369;51.174;6.738;2022-08-19T02:35:22;17.00;83.10
48589;DHT22;34369;51.174;6.738;2022-08-19T02:37:54;17.00;83.00
48589;DHT22;34369;51.174;6.738;2022-08-19T02:40:49;17.00;83.00
48589;DHT22;34369;51.174;6.738;2022-08-19T02:43:23;17.00;84.40
48589;DHT22;34369;51.174;6.738;2022-08-19T02:45:56;17.00;84.30
48589;DHT22;34369;51.174;6.738;2022-08-19T02:48:28;17.00;84.60
48589;DHT22;34369;51.174;6.738;2022-08-19T02:51:00;17.00;84.60
48589;DHT22;34369;51.174;6.738;2022-08-19T02:53:32;17.00;84.70
48589;DHT22;34369;51.174;6.738;2022-08-19T02:56:07;17.00;84.30
48589;DHT22;34369;51.174;6.738;2022-08-19T02:58:40;17.00;85.30
48589;DHT22;34369;51.174;6.738;2022-08-19T03:01:20;16.90;84.90
48589;DHT22;34369;51.174;6.738;2022-08-19T03:03:53;16.90;84.70
48589;DHT22;34369;51.174;6.738;2022-08-19T03:06:27;16.90;84.10
48589;DHT22;34369;51.174;6.738;2022-08-19T03:08:59;16.90;84.20
48589;DHT22;34369;51.174;6.738;2022-08-19T03:11:33;16.90;84.50
48589;DHT22;34369;51.174;6.738;2022-08-19T03:14:06;16.80;84.60
48589;DHT22;34369;51.174;6.738;2022-08-19T03:16:44;16.80;85.00
48589;DHT22;34369;51.174;6.738;2022-08-19T03:19:18;16.70;85.60
48589;DHT22;34369;51.174;6.738;2022-08-19T03:21:51;16.70;84.70
48589;DHT22;34369;51.174;6.738;2022-08-19T03:24:24;16.80;84.90
48589;DHT22;34369;51.174;6.738;2022-08-19T03:26:58;16.80;85.30
48589;DHT22;34369;51.174;6.738;2022-08-19T03:29:30;16.70;85.60
48589;DHT22;34369;51.174;6.738;2022-08-19T03:32:05;16.70;85.70
48589;DHT22;34369;51.174;6.738;2022-08-19T03:34:38;16.70;85.30
48589;DHT22;34369;51.174;6.738;2022-08-19T03:37:11;16.70;85.40
48589;DHT22;34369;51.174;6.738;2022-08-19T03:39:43;16.70;85.30
48589;DHT22;34369;51.174;6.738;2022-08-19T03:42:17;16.70;85.70
48589;DHT22;34369;51.174;6.738;2022-08-19T03:44:49;16.70;85.70
48589;DHT22;34369;51.174;6.738;2022-08-19T03:47:21;16.70;85.80
48589;DHT22;34369;51.174;6.738;2022-08-19T03:49:53;16.70;85.80
48589;DHT22;34369;51.174;6.738;2022-08-19T03:52:24;16.70;85.70
48589;DHT22;34369;51.174;6.738;2022-08-19T03:54:56;16.70;85.90
48589;DHT22;34369;51.174;6.738;2022-08-19T03:57:30;16.70;85.70
48589;DHT22;34369;51.174;6.738;2022-08-19T04:00:04;16.60;86.10
48589;DHT22;34369;51.174;6.738;2022-08-19T04:02:38;16.70;86.70
48589;DHT22;34369;51.174;6.738;2022-08-19T04:05:10;16.70;86.60
48589;DHT22;34369;51.174;6.738;2022-08-19T04:07:43;16.60;86.50
48589;DHT22;34369;51.174;6.738;2022-08-19T04:10:15;16.60;86.40
48589;DHT22;34369;51.174;6.738;2022-08-19T04:12:49;16.60;86.80
48589;DHT22;34369;51.174;6.738;2022-08-19T04:15:21;16.60;87.20
48589;DHT22;34369;51.174;6.738;2022-08-19T04:20:25;16.60;87.10
48589;DHT22;34369;51.174;6.738;2022-08-19T04:22:57;16.60;87.70
48589;DHT22;34369;51.174;6.738;2022-08-19T04:25:35;16.70;87.30
48589;DHT22;34369;51.174;6.738;2022-08-19T04:28:12;16.60;88.00
48589;DHT22;34369;51.174;6.738;2022-08-19T04:30:47;16.60;87.40
48589;DHT22;34369;51.174;6.738;2022-08-19T04:33:23;16.60;87.30
48589;DHT22;34369;51.174;6.738;2022-08-19T04:35:56;16.60;87.20
48589;DHT22;34369;51.174;6.738;2022-08-19T04:38:30;16.60;87.10
48589;DHT22;34369;51.174;6.738;2022-08-19T04:41:03;16.50;87.20
48589;DHT22;34369;51.174;6.738;2022-08-19T04:43:54;16.60;87.40
48589;DHT22;34369;51.174;6.738;2022-08-19T04:46:26;16.50;87.20
48589;DHT22;34369;51.174;6.738;2022-08-19T04:49:03;16.50;87.40
48589;DHT22;34369;51.174;6.738;2022-08-19T04:51:39;16.50;87.70
48589;DHT22;34369;51.174;6.738;2022-08-19T04:54:12;16.60;87.60
48589;DHT22;34369;51.174;6.738;2022-08-19T04:56:45;16.50;87.70
48589;DHT22;34369;51.174;6.738;2022-08-19T04:59:19;16.50;87.70
48589;DHT22;34369;51.174;6.738;2022-08-19T05:01:51;16.50;88.10
48589;DHT22;34369;51.174;6.738;2022-08-19T05:04:23;16.50;88.00
48589;DHT22;34369;51.174;6.738;2022-08-19T05:06:56;16.50;88.00
48589;DHT22;34369;51.174;6.738;2022-08-19T05:09:28;16.50;88.00
48589;DHT22;34369;51.174;6.738;2022-08-19T05:12:01;16.50;88.00
48589;DHT22;34369;51.174;6.738;2022-08-19T05:14:35;16.50;88.10
48589;DHT22;34369;51.174;6.738;2022-08-19T05:17:13;16.50;88.40
48589;DHT22;34369;51.174;6.738;2022-08-19T05:19:45;16.50;88.90
48589;DHT22;34369;51.174;6.738;2022-08-19T05:22:35;16.50;88.20
48589;DHT22;34369;51.174;6.738;2022-08-19T05:25:11;16.50;88.90
48589;DHT22;34369;51.174;6.738;2022-08-19T05:27:46;16.70;88.50
48589;DHT22;34369;51.174;6.738;2022-08-19T05:30:20;16.60;88.90
48589;DHT22;34369;51.174;6.738;2022-08-19T05:32:52;16.60;89.10
48589;DHT22;34369;51.174;6.738;2022-08-19T05:35:26;16.60;89.50
48589;DHT22;34369;51.174;6.738;2022-08-19T05:40:39;16.70;89.20
48589;DHT22;34369;51.174;6.738;2022-08-19T05:43:19;16.80;89.60
48589;DHT22;34369;51.174;6.738;2022-08-19T05:45:52;16.70;90.00
48589;DHT22;34369;51.174;6.738;2022-08-19T05:48:30;17.00;90.30
48589;DHT22;34369;51.174;6.738;2022-08-19T05:51:04;16.90;90.10
48589;DHT22;34369;51.174;6.738;2022-08-19T05:53:37;17.00;90.20
48589;DHT22;34369;51.174;6.738;2022-08-19T05:56:12;17.00;90.30
48589;DHT22;34369;51.174;6.738;2022-08-19T05:58:46;17.10;90.40
48589;DHT22;34369;51.174;6.738;2022-08-19T06:01:20;17.20;90.00
48589;DHT22;34369;51.174;6.738;2022-08-19T06:03:55;17.30;90.20
48589;DHT22;34369;51.174;6.738;2022-08-19T06:06:29;17.30;90.20
48589;DHT22;34369;51.174;6.738;2022-08-19T06:09:05;17.40;90.20
48589;DHT22;34369;51.174;6.738;2022-08-19T06:11:41;17.50;90.20
48589;DHT22;34369;51.174;6.738;2022-08-19T06:14:18;17.60;90.30
48589;DHT22;34369;51.174;6.738;2022-08-19T06:16:54;17.60;89.90
48589;DHT22;34369;51.174;6.738;2022-08-19T06:19:29;17.70;89.90
48589;DHT22;34369;51.174;6.738;2022-08-19T06:22:02;17.80;89.30
48589;DHT22;34369;51.174;6.738;2022-08-19T06:24:37;17.80;89.60
48589;DHT22;34369;51.174;6.738;2022-08-19T06:27:10;17.90;89.40
48589;DHT22;34369;51.174;6.738;2022-08-19T06:32:17;17.90;88.70
48589;DHT22;34369;51.174;6.738;2022-08-19T06:34:50;18.00;89.20
48589;DHT22;34369;51.174;6.738;2022-08-19T06:37:22;18.10;89.10
48589;DHT22;34369;51.174;6.738;2022-08-19T06:39:54;18.10;89.00
48589;DHT22;34369;51.174;6.738;2022-08-19T06:42:26;18.10;88.80
48589;DHT22;34369;51.174;6.738;2022-08-19T06:44:58;18.20;88.90
48589;DHT22;34369;51.174;6.738;2022-08-19T06:47:33;18.20;88.80
48589;DHT22;34369;51.174;6.738;2022-08-19T06:50:07;18.30;88.80
48589;DHT22;34369;51.174;6.738;2022-08-19T06:52:39;18.30;88.70
48589;DHT22;34369;51.174;6.738;2022-08-19T06:55:11;18.40;88.80
48589;DHT22;34369;51.174;6.738;2022-08-19T06:57:43;18.40;88.70
48589;DHT22;34369;51.174;6.738;2022-08-19T07:00:16;18.60;88.20
48589;DHT22;34369;51.174;6.738;2022-08-19T07:02:50;18.50;88.50
48589;DHT22;34369;51.174;6.738;2022-08-19T07:05:23;18.60;88.50
48589;DHT22;34369;51.174;6.738;2022-08-19T07:07:55;18.70;88.30
48589;DHT22;34369;51.174;6.738;2022-08-19T07:10:27;18.70;88.10
48589;DHT22;34369;51.174;6.738;2022-08-19T07:13:02;18.80;87.50
48589;DHT22;34369;51.174;6.738;2022-08-19T07:15:36;18.80;87.80
48589;DHT22;34369;51.174;6.738;2022-08-19T07:18:09;18.80;87.30
48589;DHT22;34369;51.174;6.738;2022-08-19T07:20:41;18.80;87.90
48589;DHT22;34369;51.174;6.738;2022-08-19T07:23:14;18.90;88.10
48589;DHT22;34369;51.174;6.738;2022-08-19T07:25:46;18.90;88.30
48589;DHT22;34369;51.174;6.738;2022-08-19T07:28:18;18.90;88.40
48589;DHT22;34369;51.174;6.738;2022-08-19T07:30:51;19.00;88.50
48589;DHT22;34369;51.174;6.738;2022-08-19T07:33:24;19.10;88.80
48589;DHT22;34369;51.174;6.738;2022-08-19T07:35:57;19.20;89.30
48589;DHT22;34369;51.174;6.738;2022-08-19T07:38:29;19.30;89.10
48589;DHT22;34369;51.174;6.738;2022-08-19T07:41:01;19.50;88.90
48589;DHT22;34369;51.174;6.738;2022-08-19T07:43:33;19.70;89.00
48589;DHT22;34369;51.174;6.738;2022-08-19T07:46:06;19.90;88.10
48589;DHT22;34369;51.174;6.738;2022-08-19T07:48:41;20.10;87.70
48589;DHT22;34369;51.174;6.738;2022-08-19T07:51:18;20.30;87.40
48589;DHT22;34369;51.174;6.738;2022-08-19T07:53:53;20.50;87.50
48589;DHT22;34369;51.174;6.738;2022-08-19T07:56:25;20.80;86.70
48589;DHT22;34369;51.174;6.738;2022-08-19T07:58:57;21.10;85.80
48589;DHT22;34369;51.174;6.738;2022-08-19T08:01:29;21.30;84.60
48589;DHT22;34369;51.174;6.738;2022-08-19T08:04:03;21.50;83.20
48589;DHT22;34369;51.174;6.738;2022-08-19T08:06:53;21.70;82.60
48589;DHT22;34369;51.174;6.738;2022-08-19T08:09:43;22.00;82.00
48589;DHT22;34369;51.174;6.738;2022-08-19T08:12:18;22.10;80.80
48589;DHT22;34369;51.174;6.738;2022-08-19T08:14:54;22.30;79.20
48589;DHT22;34369;51.174;6.738;2022-08-19T08:17:28;22.40;79.20
48589;DHT22;34369;51.174;6.738;2022-08-19T08:20:03;22.50;78.90
48589;DHT22;34369;51.174;6.738;2022-08-19T08:22:37;22.50;78.10
48589;DHT22;34369;51.174;6.738;2022-08-19T08:25:26;22.60;77.70
48589;DHT22;34369;51.174;6.738;2022-08-19T08:27:58;22.70;76.80
48589;DHT22;34369;51.174;6.738;2022-08-19T08:30:31;22.80;76.60
48589;DHT22;34369;51.174;6.738;2022-08-19T08:33:06;22.90;76.60
48589;DHT22;34369;51.174;6.738;2022-08-19T08:35:40;23.10;76.20
48589;DHT22;34369;51.174;6.738;2022-08-19T08:38:13;23.30;75.00
48589;DHT22;34369;51.174;6.738;2022-08-19T08:40:48;23.40;73.90
48589;DHT22;34369;51.174;6.738;2022-08-19T08:43:27;23.50;73.30
48589;DHT22;34369;51.174;6.738;2022-08-19T08:46:05;23.50;72.30
48589;DHT22;34369;51.174;6.738;2022-08-19T08:48:43;23.50;71.90
48589;DHT22;34369;51.174;6.738;2022-08-19T08:51:23;23.60;71.80
48589;DHT22;34369;51.174;6.738;2022-08-19T08:53:57;23.50;70.90
48589;DHT22;34369;51.174;6.738;2022-08-19T08:56:29;23.60;71.00
48589;DHT22;34369;51.174;6.738;2022-08-19T08:59:05;23.50;71.10
48589;DHT22;34369;51.174;6.738;2022-08-19T09:01:42;23.60;71.10
48589;DHT22;34369;51.174;6.738;2022-08-19T09:04:14;23.80;70.90
48589;DHT22;34369;51.174;6.738;2022-08-19T09:06:53;23.90;69.10
48589;DHT22;34369;51.174;6.738;2022-08-19T09:09:31;24.00;67.60
48589;DHT22;34369;51.174;6.738;2022-08-19T09:12:12;24.10;67.50
48589;DHT22;34369;51.174;6.738;2022-08-19T09:14:52;24.20;68.00
48589;DHT22;34369;51.174;6.738;2022-08-19T09:17:28;24.40;67.60
48589;DHT22;34369;51.174;6.738;2022-08-19T09:20:14;24.50;67.50
48589;DHT22;34369;51.174;6.738;2022-08-19T09:22:49;24.60;66.20
48589;DHT22;34369;51.174;6.738;2022-08-19T09:25:22;24.80;66.50
48589;DHT22;34369;51.174;6.738;2022-08-19T09:27:55;24.90;65.50
48589;DHT22;34369;51.174;6.738;2022-08-19T09:30:29;25.00;64.80
48589;DHT22;34369;51.174;6.738;2022-08-19T09:33:03;25.00;64.20
48589;DHT22;34369;51.174;6.738;2022-08-19T09:35:35;25.00;64.10
48589;DHT22;34369;51.174;6.738;2022-08-19T09:38:10;25.00;64.00
48589;DHT22;34369;51.174;6.738;2022-08-19T09:40:42;25.00;63.10
48589;DHT22;34369;51.174;6.738;2022-08-19T09:43:15;25.00;64.10
48589;DHT22;34369;51.174;6.738;2022-08-19T09:45:47;25.00;63.60
48589;DHT22;34369;51.174;6.738;2022-08-19T09:48:19;25.10;63.00
48589;DHT22;34369;51.174;6.738;2022-08-19T09:50:51;25.20;62.50
48589;DHT22;34369;51.174;6.738;2022-08-19T09:53:26;25.20;62.40
48589;DHT22;34369;51.174;6.738;2022-08-19T09:55:59;25.40;61.80
48589;DHT22;34369;51.174;6.738;2022-08-19T09:58:31;25.40;61.80
48589;DHT22;34369;51.174;6.738;2022-08-19T10:01:06;25.50;61.40
48589;DHT22;34369;51.174;6.738;2022-08-19T10:03:40;25.60;60.70
48589;DHT22;34369;51.174;6.738;2022-08-19T10:06:12;25.70;61.00
48589;DHT22;34369;51.174;6.738;2022-08-19T10:08:46;25.70;61.00
48589;DHT22;34369;51.174;6.738;2022-08-19T10:11:19;25.80;59.50
48589;DHT22;34369;51.174;6.738;2022-08-19T10:13:52;25.80;59.40
48589;DHT22;34369;51.174;6.738;2022-08-19T10:16:24;25.70;60.00
48589;DHT22;34369;51.174;6.738;2022-08-19T10:18:56;25.70;59.50
48589;DHT22;34369;51.174;6.738;2022-08-19T10:21:30;25.70;59.20
48589;DHT22;34369;51.174;6.738;2022-08-19T10:24:06;25.70;60.10
48589;DHT22;34369;51.174;6.738;2022-08-19T10:26:39;25.70;60.60
48589;DHT22;34369;51.174;6.738;2022-08-19T10:29:15;25.70;60.00
48589;DHT22;34369;51.174;6.738;2022-08-19T10:31:47;25.70;59.80
48589;DHT22;34369;51.174;6.738;2022-08-19T10:34:20;25.80;59.50
48589;DHT22;34369;51.174;6.738;2022-08-19T10:36:52;25.80;59.30
48589;DHT22;34369;51.174;6.738;2022-08-19T10:39:25;25.80;59.80
48589;DHT22;34369;51.174;6.738;2022-08-19T10:41:59;25.80;59.60
48589;DHT22;34369;51.174;6.738;2022-08-19T10:44:35;25.80;59.10
48589;DHT22;34369;51.174;6.738;2022-08-19T10:47:07;25.90;59.60
48589;DHT22;34369;51.174;6.738;2022-08-19T10:49:39;25.80;59.40
48589;DHT22;34369;51.174;6.738;2022-08-19T10:52:25;25.90;59.60
48589;DHT22;34369;51.174;6.738;2022-08-19T10:55:08;25.90;59.40
48589;DHT22;34369;51.174;6.738;2022-08-19T10:57:58;25.90;58.60
48589;DHT22;34369;51.174;6.738;2022-08-19T11:00:30;25.90;58.60
48589;DHT22;34369;51.174;6.738;2022-08-19T11:03:02;26.00;58.60
48589;DHT22;34369;51.174;6.738;2022-08-19T11:05:34;26.00;58.30
48589;DHT22;34369;51.174;6.738;2022-08-19T11:08:08;26.00;58.50
48589;DHT22;34369;51.174;6.738;2022-08-19T11:10:43;26.00;57.90
48589;DHT22;34369;51.174;6.738;2022-08-19T11:13:15;26.00;58.00
48589;DHT22;34369;51.174;6.738;2022-08-19T11:15:47;26.00;58.50
48589;DHT22;34369;51.174;6.738;2022-08-19T11:18:19;26.10;58.20
48589;DHT22;34369;51.174;6.738;2022-08-19T11:20:51;26.10;57.30
48589;DHT22;34369;51.174;6.738;2022-08-19T11:23:23;26.10;57.00
48589;DHT22;34369;51.174;6.738;2022-08-19T11:25:59;26.10;56.30
48589;DHT22;34369;51.174;6.738;2022-08-19T11:28:31;26.10;56.80
48589;DHT22;34369;51.174;6.738;2022-08-19T11:31:04;26.10;56.10
48589;DHT22;34369;51.174;6.738;2022-08-19T11:33:36;26.00;56.80
48589;DHT22;34369;51.174;6.738;2022-08-19T11:36:09;26.10;57.10
48589;DHT22;34369;51.174;6.738;2022-08-19T11:38:42;26.10;56.70
48589;DHT22;34369;51.174;6.738;2022-08-19T11:41:20;26.20;57.00
48589;DHT22;34369;51.174;6.738;2022-08-19T11:43:54;26.30;56.00
48589;DHT22;34369;51.174;6.738;2022-08-19T11:46:27;26.50;56.20
48589;DHT22;34369;51.174;6.738;2022-08-19T11:49:00;26.70;56.80
48589;DHT22;34369;51.174;6.738;2022-08-19T11:51:33;26.90;56.50
48589;DHT22;34369;51.174;6.738;2022-08-19T11:54:06;27.10;55.80
48589;DHT22;34369;51.174;6.738;2022-08-19T11:56:40;27.40;55.40
48589;DHT22;34369;51.174;6.738;2022-08-19T11:59:13;27.70;55.60
48589;DHT22;34369;51.174;6.738;2022-08-19T12:01:45;28.00;55.20
48589;DHT22;34369;51.174;6.738;2022-08-19T12:04:17;28.20;55.00
48589;DHT22;34369;51.174;6.738;2022-08-19T12:06:49;28.50;53.50
48589;DHT22;34369;51.174;6.738;2022-08-19T12:09:21;28.60;53.70
48589;DHT22;34369;51.174;6.738;2022-08-19T12:11:55;28.80;52.00
48589;DHT22;34369;51.174;6.738;2022-08-19T12:14:27;28.90;51.50
48589;DHT22;34369;51.174;6.738;2022-08-19T12:17:01;29.00;51.00
48589;DHT22;34369;51.174;6.738;2022-08-19T12:19:36;29.10;50.60
48589;DHT22;34369;51.174;6.738;2022-08-19T12:22:09;29.20;50.90
48589;DHT22;34369;51.174;6.738;2022-08-19T12:24:42;29.10;51.00
48589;DHT22;34369;51.174;6.738;2022-08-19T12:27:15;29.10;50.20
48589;DHT22;34369;51.174;6.738;2022-08-19T12:29:47;29.00;50.20
48589;DHT22;34369;51.174;6.738;2022-08-19T12:32:19;28.90;50.20
48589;DHT22;34369;51.174;6.738;2022-08-19T12:34:52;28.90;50.50
48589;DHT22;34369;51.174;6.738;2022-08-19T12:37:24;28.80;50.50
48589;DHT22;34369;51.174;6.738;2022-08-19T12:39:56;28.80;49.90
48589;DHT22;34369;51.174;6.738;2022-08-19T12:42:30;28.70;49.20
48589;DHT22;34369;51.174;6.738;2022-08-19T12:45:02;28.70;48.90
48589;DHT22;34369;51.174;6.738;2022-08-19T12:47:35;28.70;48.80
48589;DHT22;34369;51.174;6.738;2022-08-19T12:50:08;28.70;47.60
48589;DHT22;34369;51.174;6.738;2022-08-19T12:52:40;28.80;48.00
48589;DHT22;34369;51.174;6.738;2022-08-19T12:55:14;28.80;48.80
48589;DHT22;34369;51.174;6.738;2022-08-19T12:57:48;29.00;48.80
48589;DHT22;34369;51.174;6.738;2022-08-19T13:00:21;29.10;48.70
48589;DHT22;34369;51.174;6.738;2022-08-19T13:02:54;29.30;48.90
48589;DHT22;34369;51.174;6.738;2022-08-19T13:05:29;29.30;48.40
48589;DHT22;34369;51.174;6.738;2022-08-19T13:08:03;29.40;47.80
48589;DHT22;34369;51.174;6.738;2022-08-19T13:10:36;29.50;47.70
48589;DHT22;34369;51.174;6.738;2022-08-19T13:13:10;29.50;47.40
48589;DHT22;34369;51.174;6.738;2022-08-19T13:15:42;29.60;47.20
48589;DHT22;34369;51.174;6.738;2022-08-19T13:18:15;29.70;47.60
48589;DHT22;34369;51.174;6.738;2022-08-19T13:20:47;29.80;46.90
48589;DHT22;34369;51.174;6.738;2022-08-19T13:23:19;29.80;47.00
48589;DHT22;34369;51.174;6.738;2022-08-19T13:25:58;29.90;46.70
48589;DHT22;34369;51.174;6.738;2022-08-19T13:28:32;29.90;46.80
48589;DHT22;34369;51.174;6.738;2022-08-19T13:31:21;30.00;46.90
48589;DHT22;34369;51.174;6.738;2022-08-19T13:34:12;30.00;46.80
48589;DHT22;34369;51.174;6.738;2022-08-19T13:36:45;30.00;46.60
48589;DHT22;34369;51.174;6.738;2022-08-19T13:39:17;30.00;45.90
48589;DHT22;34369;51.174;6.738;2022-08-19T13:41:49;30.00;45.70
48589;DHT22;34369;51.174;6.738;2022-08-19T13:44:22;30.00;45.70
48589;DHT22;34369;51.174;6.738;2022-08-19T13:46:54;30.00;45.60
48589;DHT22;34369;51.174;6.738;2022-08-19T13:49:28;29.90;45.70
48589;DHT22;34369;51.174;6.738;2022-08-19T13:52:03;30.00;45.60
48589;DHT22;34369;51.174;6.738;2022-08-19T13:54:35;29.90;45.20
48589;DHT22;34369;51.174;6.738;2022-08-19T13:57:07;30.00;45.10
48589;DHT22;34369;51.174;6.738;2022-08-19T13:59:41;29.90;45.60
48589;DHT22;34369;51.174;6.738;2022-08-19T14:02:13;29.90;45.00
48589;DHT22;34369;51.174;6.738;2022-08-19T14:04:45;29.90;45.40
48589;DHT22;34369;51.174;6.738;2022-08-19T14:07:17;29.90;45.10
48589;DHT22;34369;51.174;6.738;2022-08-19T14:09:49;29.90;45.00
48589;DHT22;34369;51.174;6.738;2022-08-19T14:12:21;29.80;44.30
48589;DHT22;34369;51.174;6.738;2022-08-19T14:14:55;29.80;44.80
48589;DHT22;34369;51.174;6.738;2022-08-19T14:17:27;29.70;45.50
48589;DHT22;34369;51.174;6.738;2022-08-19T14:20:00;29.60;45.20
48589;DHT22;34369;51.174;6.738;2022-08-19T14:22:38;29.70;44.80
48589;DHT22;34369;51.174;6.738;2022-08-19T14:25:13;29.60;44.90
48589;DHT22;34369;51.174;6.738;2022-08-19T14:27:48;29.70;44.50
48589;DHT22;34369;51.174;6.738;2022-08-19T14:30:26;29.70;44.30
48589;DHT22;34369;51.174;6.738;2022-08-19T16:01:06;27.40;47.60
48589;DHT22;34369;51.174;6.738;2022-08-19T16:04:13;27.70;49.20
48589;DHT22;34369;51.174;6.738;2022-08-19T16:07:11;27.80;49.00
48589;DHT22;34369;51.174;6.738;2022-08-19T16:09:45;27.90;48.90
48589;DHT22;34369;51.174;6.738;2022-08-19T16:15:41;27.80;49.00
48589;DHT22;34369;51.174;6.738;2022-08-19T16:18:39;27.80;49.40
48589;DHT22;34369;51.174;6.738;2022-08-19T16:21:29;27.60;49.40
48589;DHT22;34369;51.174;6.738;2022-08-19T16:24:10;27.60;49.90
48589;DHT22;34369;51.174;6.738;2022-08-19T16:26:47;27.50;50.60
48589;DHT22;34369;51.174;6.738;2022-08-19T16:29:21;27.40;50.30
48589;DHT22;34369;51.174;6.738;2022-08-19T16:31:56;27.20;49.90
48589;DHT22;34369;51.174;6.738;2022-08-19T16:34:38;27.10;50.00
48589;DHT22;34369;51.174;6.738;2022-08-19T16:37:14;27.00;50.20
48589;DHT22;34369;51.174;6.738;2022-08-19T16:39:47;26.80;50.20
48589;DHT22;34369;51.174;6.738;2022-08-19T16:42:22;26.80;50.50
48589;DHT22;34369;51.174;6.738;2022-08-19T16:44:55;26.60;50.90
48589;DHT22;34369;51.174;6.738;2022-08-19T16:47:28;26.50;51.10
48589;DHT22;34369;51.174;6.738;2022-08-19T16:50:03;26.40;51.60
48589;DHT22;34369;51.174;6.738;2022-08-19T16:52:37;26.30;51.60
48589;DHT22;34369;51.174;6.738;2022-08-19T16:55:08;26.20;51.70
48589;DHT22;34369;51.174;6.738;2022-08-19T16:57:40;26.10;51.80
48589;DHT22;34369;51.174;6.738;2022-08-19T17:00:14;26.00;52.10
48589;DHT22;34369;51.174;6.738;2022-08-19T17:02:46;26.00;52.60
48589;DHT22;34369;51.174;6.738;2022-08-19T17:05:20;25.80;52.60
48589;DHT22;34369;51.174;6.738;2022-08-19T17:07:52;25.80;53.10
48589;DHT22;34369;51.174;6.738;2022-08-19T17:10:24;25.70;53.10
48589;DHT22;34369;51.174;6.738;2022-08-19T17:12:57;25.70;53.30
48589;DHT22;34369;51.174;6.738;2022-08-19T17:15:29;25.60;53.50
48589;DHT22;34369;51.174;6.738;2022-08-19T17:18:09;25.60;53.80
48589;DHT22;34369;51.174;6.738;2022-08-19T17:21:28;25.50;53.90
48589;DHT22;34369;51.174;6.738;2022-08-19T17:24:06;25.50;54.10
48589;DHT22;34369;51.174;6.738;2022-08-19T17:26:40;25.50;54.10
48589;DHT22;34369;51.174;6.738;2022-08-19T17:29:12;25.40;54.40
48589;DHT22;34369;51.174;6.738;2022-08-19T17:31:45;25.40;54.50
48589;DHT22;34369;51.174;6.738;2022-08-19T17:34:18;25.40;54.70
48589;DHT22;34369;51.174;6.738;2022-08-19T17:36:53;25.30;55.00
48589;DHT22;34369;51.174;6.738;2022-08-19T17:39:26;25.30;55.30
48589;DHT22;34369;51.174;6.738;2022-08-19T17:41:58;25.30;55.60
48589;DHT22;34369;51.174;6.738;2022-08-19T17:44:32;25.30;55.50
48589;DHT22;34369;51.174;6.738;2022-08-19T17:47:06;25.20;55.80
48589;DHT22;34369;51.174;6.738;2022-08-19T17:49:38;25.20;55.60
48589;DHT22;34369;51.174;6.738;2022-08-19T17:52:15;25.20;55.80
48589;DHT22;34369;51.174;6.738;2022-08-19T17:54:49;25.10;56.10